createdAt,value
2023-04-02T00:00:31.937Z,9.80
2023-04-02T00:03:03.836Z,9.90
2023-04-02T00:05:55.850Z,10.23
2023-04-02T00:08:28.157Z,8.40
2023-04-02T00:10:58.912Z,10.03
2023-04-02T00:13:34.886Z,12.90
2023-04-02T00:16:05.471Z,10.50
2023-04-02T00:18:35.104Z,11.17
2023-04-02T00:21:13.639Z,11.07
2023-04-02T00:23:43.828Z,10.47
2023-04-02T00:26:30.377Z,15.10
2023-04-02T00:29:00.489Z,13.20
2023-04-02T00:31:29.163Z,12.50
2023-04-02T00:33:58.230Z,11.47
2023-04-02T00:36:30.227Z,10.33
2023-04-02T00:39:00.387Z,14.00
2023-04-02T00:41:31.918Z,14.83
2023-04-02T00:44:02.781Z,17.67
2023-04-02T00:46:34.752Z,14.43
2023-04-02T00:49:09.809Z,13.17
2023-04-02T00:51:41.696Z,13.77
2023-04-02T00:54:15.794Z,14.40
2023-04-02T00:56:46.296Z,12.60
2023-04-02T00:59:28.239Z,12.87
2023-04-02T01:02:01.797Z,11.07
2023-04-02T01:04:36.613Z,14.90
2023-04-02T01:07:08.697Z,11.30
2023-04-02T01:09:53.794Z,15.73
2023-04-02T01:12:44.126Z,11.10
2023-04-02T01:15:19.652Z,12.83
2023-04-02T01:18:03.350Z,12.20
2023-04-02T01:20:55.012Z,12.50
2023-04-02T01:23:29.418Z,9.47
2023-04-02T01:26:05.854Z,10.23
2023-04-02T01:28:47.312Z,11.43
2023-04-02T01:31:17.578Z,13.30
2023-04-02T01:33:45.641Z,16.30
2023-04-02T01:36:23.777Z,16.50
2023-04-02T01:39:02.146Z,12.20
2023-04-02T01:41:36.852Z,14.67
2023-04-02T01:44:09.472Z,11.80
2023-04-02T01:46:43.011Z,11.70
2023-04-02T01:49:15.012Z,13.93
2023-04-02T01:51:45.640Z,17.03
2023-04-02T01:54:18.433Z,12.13
2023-04-02T01:56:47.174Z,14.10
2023-04-02T01:59:18.676Z,15.40
2023-04-02T02:01:53.612Z,15.80
2023-04-02T02:04:21.747Z,18.53
2023-04-02T02:06:50.625Z,15.30
2023-04-02T02:09:24.090Z,18.43
2023-04-02T02:11:52.694Z,15.93
2023-04-02T02:14:24.898Z,18.33
2023-04-02T02:16:56.611Z,15.17
2023-04-02T02:19:29.383Z,19.23
2023-04-02T02:22:05.170Z,16.80
2023-04-02T02:24:35.792Z,15.97
2023-04-02T02:27:32.790Z,15.83
2023-04-02T02:30:15.451Z,17.30
2023-04-02T02:32:51.220Z,16.67
2023-04-02T02:35:23.961Z,18.50
2023-04-02T02:37:58.801Z,17.10
2023-04-02T02:40:33.061Z,17.00
2023-04-02T02:43:04.312Z,15.87
2023-04-02T02:45:38.765Z,13.30
2023-04-02T02:48:11.717Z,15.37
2023-04-02T02:50:41.238Z,15.53
2023-04-02T02:53:18.732Z,16.20
2023-04-02T02:55:48.765Z,13.60
2023-04-02T02:58:27.342Z,15.10
2023-04-02T03:01:19.807Z,17.27
2023-04-02T03:03:53.574Z,15.30
2023-04-02T03:06:22.438Z,17.37
2023-04-02T03:09:05.053Z,19.00
2023-04-02T03:11:41.386Z,15.33
2023-04-02T03:14:21.345Z,15.57
2023-04-02T03:16:57.810Z,19.87
2023-04-02T03:19:33.912Z,19.43
2023-04-02T03:22:09.689Z,17.73
2023-04-02T03:24:48.359Z,16.67
2023-04-02T03:27:21.481Z,21.63
2023-04-02T03:30:02.784Z,17.03
2023-04-02T03:32:38.418Z,17.20
2023-04-02T03:35:21.068Z,17.67
2023-04-02T03:37:54.936Z,15.83
2023-04-02T03:40:29.792Z,15.30
2023-04-02T03:43:04.776Z,14.23
2023-04-02T03:45:40.511Z,14.57
2023-04-02T03:48:16.884Z,14.23
2023-04-02T03:50:50.777Z,16.30
2023-04-02T03:53:18.999Z,15.80
2023-04-02T03:55:47.843Z,17.33
2023-04-02T03:58:22.135Z,14.40
2023-04-02T04:00:55.530Z,16.97
2023-04-02T04:03:28.044Z,17.40
2023-04-02T04:06:00.644Z,17.00
2023-04-02T04:08:34.163Z,16.97
2023-04-02T04:11:08.527Z,12.43
2023-04-02T04:13:44.659Z,15.87
2023-04-02T04:16:17.193Z,15.20
2023-04-02T04:18:52.760Z,15.30
2023-04-02T04:21:31.039Z,14.27
2023-04-02T04:24:13.219Z,12.53
2023-04-02T04:26:49.746Z,15.10
2023-04-02T04:29:34.133Z,11.23
2023-04-02T04:32:18.916Z,11.73
2023-04-02T04:34:53.729Z,19.13
2023-04-02T04:37:35.195Z,12.73
2023-04-02T04:40:13.379Z,17.57
2023-04-02T04:42:44.568Z,14.10
2023-04-02T04:45:27.226Z,16.10
2023-04-02T04:48:01.679Z,11.33
2023-04-02T04:50:35.593Z,12.70
2023-04-02T04:53:08.398Z,14.27
2023-04-02T04:55:40.409Z,14.33
2023-04-02T04:58:19.838Z,13.23
2023-04-02T05:00:57.591Z,14.60
2023-04-02T05:03:32.076Z,13.53
2023-04-02T05:06:09.942Z,14.87
2023-04-02T05:08:45.357Z,14.27
2023-04-02T05:11:21.118Z,15.60
2023-04-02T05:13:53.592Z,14.40
2023-04-02T05:16:27.508Z,19.60
2023-04-02T05:19:03.813Z,14.27
2023-04-02T05:21:43.277Z,13.13
2023-04-02T05:24:43.438Z,13.37
2023-04-02T05:27:25.121Z,13.23
2023-04-02T05:30:00.467Z,12.83
2023-04-02T05:32:33.358Z,13.73
2023-04-02T05:35:05.515Z,17.63
2023-04-02T05:37:41.136Z,11.90
2023-04-02T05:40:20.969Z,13.77
2023-04-02T05:42:55.708Z,15.23
2023-04-02T05:45:31.190Z,16.17
2023-04-02T05:48:05.931Z,15.37
2023-04-02T05:50:44.371Z,12.70
2023-04-02T05:53:26.153Z,12.10
2023-04-02T05:55:59.352Z,15.33
2023-04-02T05:58:36.996Z,11.90
2023-04-02T06:01:39.175Z,13.33
2023-04-02T06:04:43.737Z,12.00
2023-04-02T06:07:17.444Z,11.63
2023-04-02T06:09:57.993Z,15.03
2023-04-02T06:12:33.018Z,11.40
2023-04-02T06:15:01.981Z,12.57
2023-04-02T06:17:43.337Z,11.87
2023-04-02T06:20:17.262Z,12.63
2023-04-02T06:22:50.386Z,12.07
2023-04-02T06:25:25.227Z,12.43
2023-04-02T06:27:56.421Z,12.30
2023-04-02T06:30:29.795Z,14.03
2023-04-02T06:32:58.253Z,12.97
2023-04-02T06:35:28.447Z,12.67
2023-04-02T06:38:05.165Z,13.23
2023-04-02T06:40:42.812Z,13.40
2023-04-02T06:43:36.311Z,15.10
2023-04-02T06:46:31.098Z,12.80
2023-04-02T06:49:16.255Z,11.47
2023-04-02T06:51:46.773Z,13.10
2023-04-02T06:54:19.021Z,12.03
2023-04-02T06:56:54.604Z,12.70
2023-04-02T06:59:29.903Z,12.43
2023-04-02T07:02:03.647Z,12.20
2023-04-02T07:04:32.637Z,13.13
2023-04-02T07:07:00.723Z,14.03
2023-04-02T07:09:32.938Z,11.87
2023-04-02T07:12:12.385Z,10.27
2023-04-02T07:14:40.896Z,11.47
2023-04-02T07:17:16.832Z,10.87
2023-04-02T07:19:49.145Z,11.30
2023-04-02T07:22:19.386Z,12.63
2023-04-02T07:24:50.858Z,10.03
2023-04-02T07:27:20.220Z,10.77
2023-04-02T07:29:48.167Z,10.10
2023-04-02T07:32:16.323Z,11.67
2023-04-02T07:34:44.178Z,9.40
2023-04-02T07:37:14.977Z,9.80
2023-04-02T07:39:42.973Z,10.70
2023-04-02T07:42:11.431Z,9.93
2023-04-02T07:44:40.737Z,8.97
2023-04-02T07:47:10.603Z,12.83
2023-04-02T07:49:38.720Z,9.80
2023-04-02T07:52:07.043Z,8.77
2023-04-02T07:54:35.872Z,11.50
2023-04-02T07:57:03.807Z,9.20
2023-04-02T07:59:31.670Z,11.03
2023-04-02T08:02:01.067Z,9.90
2023-04-02T08:04:29.015Z,8.00
2023-04-02T08:06:56.929Z,9.80
2023-04-02T08:09:24.839Z,9.00
2023-04-02T08:11:52.738Z,8.67
2023-04-02T08:14:20.980Z,7.97
2023-04-02T08:16:51.011Z,7.53
2023-04-02T08:19:21.379Z,7.70
2023-04-02T08:21:51.638Z,8.53
2023-04-02T08:24:20.402Z,7.77
2023-04-02T08:26:49.574Z,7.80
2023-04-02T08:29:17.587Z,6.57
2023-04-02T08:31:45.453Z,6.20
2023-04-02T08:34:13.766Z,6.80
2023-04-02T08:36:45.447Z,6.87
2023-04-02T08:39:13.833Z,6.20
2023-04-02T08:41:48.335Z,6.03
2023-04-02T08:44:32.393Z,6.30
2023-04-02T08:47:04.689Z,7.33
2023-04-02T08:49:37.433Z,6.33
2023-04-02T08:52:06.706Z,6.70
2023-04-02T08:54:38.524Z,7.20
2023-04-02T08:57:14.271Z,5.73
2023-04-02T08:59:44.086Z,6.87
2023-04-02T09:02:28.527Z,6.10
2023-04-02T09:04:58.237Z,5.80
2023-04-02T09:07:28.495Z,12.97
2023-04-02T09:09:58.107Z,8.20
2023-04-02T09:12:28.963Z,6.50
2023-04-02T09:15:11.795Z,7.93
2023-04-02T09:17:53.081Z,6.80
2023-04-02T09:20:24.634Z,6.83
2023-04-02T09:22:54.871Z,6.60
2023-04-02T09:25:26.898Z,6.60
2023-04-02T09:27:58.017Z,6.50
2023-04-02T09:30:41.931Z,5.90
2023-04-02T09:33:10.132Z,6.47
2023-04-02T09:35:39.338Z,10.20
2023-04-02T09:38:21.700Z,7.50
2023-04-02T09:40:52.783Z,6.90
2023-04-02T09:43:23.004Z,6.87
2023-04-02T09:46:00.393Z,7.10
2023-04-02T09:48:31.406Z,6.67
2023-04-02T09:51:08.082Z,6.00
2023-04-02T09:53:41.883Z,6.77
2023-04-02T09:56:14.642Z,8.00
2023-04-02T09:58:47.262Z,6.67
2023-04-02T10:01:29.285Z,7.03
2023-04-02T10:03:59.238Z,7.13
2023-04-02T10:06:28.898Z,8.83
2023-04-02T10:08:58.462Z,6.33
2023-04-02T10:11:36.627Z,6.27
2023-04-02T10:14:18.999Z,6.53
2023-04-02T10:16:51.507Z,6.50
2023-04-02T10:19:26.384Z,5.90
2023-04-02T10:21:56.602Z,6.73
2023-04-02T10:24:29.416Z,6.57
2023-04-02T10:27:04.054Z,7.90
2023-04-02T10:29:58.183Z,6.80
2023-04-02T10:32:31.070Z,7.43
2023-04-02T10:35:03.393Z,5.57
2023-04-02T10:37:54.309Z,5.53
2023-04-02T10:40:29.458Z,5.87
2023-04-02T10:43:38.604Z,5.77
2023-04-02T10:46:13.020Z,5.70
2023-04-02T10:48:47.866Z,5.80
2023-04-02T10:51:29.858Z,3.77
2023-04-02T10:54:07.122Z,3.70
2023-04-02T10:56:49.873Z,4.73
2023-04-02T10:59:23.642Z,3.77
2023-04-02T11:01:53.893Z,5.40
2023-04-02T11:04:28.637Z,3.20
2023-04-02T11:07:11.208Z,4.07
2023-04-02T11:09:47.398Z,2.80
2023-04-02T11:12:24.384Z,3.07
2023-04-02T11:14:53.375Z,7.83
2023-04-02T11:17:22.860Z,2.73
2023-04-02T11:19:50.873Z,2.70
2023-04-02T11:22:21.501Z,2.87
2023-04-02T11:24:51.174Z,2.23
2023-04-02T11:27:27.882Z,2.70
2023-04-02T11:30:04.850Z,4.30
2023-04-02T11:32:37.251Z,2.40
2023-04-02T11:35:28.305Z,2.30
2023-04-02T11:37:59.668Z,2.00
2023-04-02T11:40:51.357Z,1.83
2023-04-02T11:43:49.975Z,1.83
2023-04-02T11:46:46.435Z,1.90
2023-04-02T11:49:54.163Z,3.50
2023-04-02T11:52:25.763Z,1.90
2023-04-02T11:54:59.394Z,2.00
2023-04-02T11:57:40.964Z,2.97
2023-04-02T12:00:23.019Z,2.77
2023-04-02T12:03:04.351Z,3.33
2023-04-02T12:05:43.097Z,2.07
2023-04-02T12:08:25.060Z,2.23
2023-04-02T12:10:59.264Z,1.80
2023-04-02T12:13:52.865Z,1.60
2023-04-02T12:16:24.236Z,1.30
2023-04-02T12:18:54.939Z,1.50
2023-04-02T12:21:26.408Z,5.17
2023-04-02T12:23:57.278Z,2.00
2023-04-02T12:26:37.622Z,1.40
2023-04-02T12:29:24.551Z,2.17
2023-04-02T12:31:54.756Z,3.03
2023-04-02T12:34:24.717Z,2.73
2023-04-02T12:36:59.461Z,1.50
2023-04-02T12:39:28.466Z,1.63
2023-04-02T12:41:57.090Z,1.60
2023-04-02T12:44:27.576Z,1.50
2023-04-02T12:46:58.588Z,2.13
2023-04-02T12:49:45.014Z,1.67
2023-04-02T12:52:14.722Z,1.70
2023-04-02T12:54:47.064Z,1.67
2023-04-02T12:57:36.139Z,1.50
2023-04-02T13:00:30.389Z,1.90
2023-04-02T13:03:17.508Z,1.87
2023-04-02T13:05:47.909Z,1.83
2023-04-02T13:08:19.250Z,2.17
2023-04-02T13:10:53.182Z,2.13
2023-04-02T13:13:28.165Z,1.80
2023-04-02T13:16:26.670Z,1.90
2023-04-02T13:19:12.372Z,1.97
2023-04-02T13:21:40.339Z,1.90
2023-04-02T13:24:17.900Z,3.33
2023-04-02T13:26:47.883Z,1.80
2023-04-02T13:29:25.593Z,1.77
2023-04-02T13:31:56.286Z,2.80
2023-04-02T13:34:25.817Z,2.00
2023-04-02T13:36:53.948Z,2.20
2023-04-02T13:39:22.449Z,1.90
2023-04-02T13:41:52.973Z,1.80
2023-04-02T13:44:23.997Z,1.70
2023-04-02T13:46:52.511Z,2.50
2023-04-02T13:49:20.956Z,1.70
2023-04-02T13:51:51.867Z,1.60
2023-04-02T13:54:25.733Z,3.37
2023-04-02T13:56:53.931Z,1.77
2023-04-02T13:59:21.860Z,2.23
2023-04-02T14:01:52.370Z,2.83
2023-04-02T14:04:24.907Z,2.23
2023-04-02T14:07:22.761Z,2.23
2023-04-02T14:10:04.167Z,2.40
2023-04-02T14:12:43.243Z,2.43
2023-04-02T14:15:26.576Z,2.70
2023-04-02T14:18:11.437Z,2.37
2023-04-02T14:20:48.767Z,2.53
2023-04-02T14:23:46.704Z,2.80
2023-04-02T14:26:21.402Z,2.77
2023-04-02T14:28:57.587Z,2.90
2023-04-02T14:31:31.957Z,3.50
2023-04-02T14:34:07.776Z,3.60
2023-04-02T14:36:45.833Z,4.10
2023-04-02T14:39:22.803Z,4.27
2023-04-02T14:41:57.491Z,3.90
2023-04-02T14:44:29.325Z,4.83
2023-04-02T14:47:03.119Z,6.23
2023-04-02T14:49:41.689Z,5.07
2023-04-02T14:52:14.865Z,3.80
2023-04-02T14:54:51.904Z,3.27
2023-04-02T14:57:23.702Z,3.63
2023-04-02T15:00:00.137Z,3.50
2023-04-02T15:02:37.837Z,3.60
2023-04-02T15:05:16.447Z,3.80
2023-04-02T15:07:51.120Z,4.23
2023-04-02T15:10:27.252Z,4.13
2023-04-02T15:12:56.905Z,3.80
2023-04-02T15:15:40.614Z,4.17
2023-04-02T15:18:12.647Z,4.10
2023-04-02T15:20:49.518Z,4.33
2023-04-02T15:23:30.399Z,3.87
2023-04-02T15:26:08.363Z,4.40
2023-04-02T15:28:41.902Z,3.63
2023-04-02T15:31:14.275Z,4.33
2023-04-02T15:33:45.968Z,5.13
2023-04-02T15:36:45.717Z,4.30
2023-04-02T15:39:44.449Z,3.93
2023-04-02T15:42:19.721Z,3.93
2023-04-02T15:45:02.887Z,4.23
2023-04-02T15:47:41.748Z,4.50
2023-04-02T15:50:30.859Z,4.47
2023-04-02T15:53:09.658Z,4.03
2023-04-02T15:55:46.060Z,4.10
2023-04-02T15:58:25.642Z,4.53
2023-04-02T16:01:09.129Z,4.43
2023-04-02T16:04:07.504Z,4.60
2023-04-02T16:06:44.646Z,3.93
2023-04-02T16:09:23.801Z,5.67
2023-04-02T16:11:58.328Z,6.43
2023-04-02T16:14:28.941Z,6.53
2023-04-02T16:17:08.094Z,5.30
2023-04-02T16:19:45.798Z,5.37
2023-04-02T16:22:19.527Z,5.43
2023-04-02T16:24:50.984Z,7.57
2023-04-02T16:27:29.579Z,5.93
2023-04-02T16:30:18.109Z,5.93
2023-04-02T16:33:00.871Z,5.87
2023-04-02T16:35:43.043Z,5.97
2023-04-02T16:38:21.788Z,5.97
2023-04-02T16:41:07.667Z,6.73
2023-04-02T16:43:44.762Z,6.60
2023-04-02T16:46:38.202Z,6.10
2023-04-02T16:49:20.172Z,6.00
2023-04-02T16:51:59.692Z,6.73
2023-04-02T16:54:36.765Z,7.00
2023-04-02T16:57:23.573Z,7.80
2023-04-02T17:00:01.960Z,6.83
2023-04-02T17:02:43.429Z,7.33
2023-04-02T17:05:25.750Z,6.80
2023-04-02T17:08:03.034Z,7.57
2023-04-02T17:10:32.346Z,7.93
2023-04-02T17:13:14.016Z,8.00
2023-04-02T17:15:44.572Z,8.73
2023-04-02T17:18:19.859Z,8.73
2023-04-02T17:20:48.165Z,8.73
2023-04-02T17:23:18.119Z,7.87
2023-04-02T17:25:51.394Z,9.07
2023-04-02T17:28:25.455Z,8.07
2023-04-02T17:30:56.958Z,8.27
2023-04-02T17:33:28.370Z,7.80
2023-04-02T17:36:16.009Z,8.30
2023-04-02T17:38:57.569Z,7.13
2023-04-02T17:41:33.257Z,8.13
2023-04-02T17:44:08.532Z,8.73
2023-04-02T17:46:40.340Z,10.47
2023-04-02T17:49:22.882Z,9.27
2023-04-02T17:51:57.300Z,7.80
2023-04-02T17:54:37.114Z,8.27
2023-04-02T17:57:20.600Z,8.43
2023-04-02T18:00:12.573Z,7.30
2023-04-02T18:02:56.897Z,9.17
2023-04-02T18:05:31.934Z,10.00
2023-04-02T18:08:13.368Z,10.93
2023-04-02T18:10:52.296Z,9.90
2023-04-02T18:13:32.705Z,9.47
2023-04-02T18:16:14.667Z,9.40
2023-04-02T18:19:03.412Z,10.77
2023-04-02T18:21:37.932Z,9.40
2023-04-02T18:24:30.781Z,11.00
2023-04-02T18:27:15.668Z,10.57
2023-04-02T18:29:52.448Z,9.17
2023-04-02T18:32:36.627Z,11.37
2023-04-02T18:35:16.320Z,10.37
2023-04-02T18:37:58.879Z,10.40
2023-04-02T18:40:37.680Z,10.30
2023-04-02T18:43:17.063Z,9.83
2023-04-02T18:45:56.845Z,10.10
2023-04-02T18:48:43.531Z,9.77
2023-04-02T18:51:18.389Z,9.53
2023-04-02T18:53:50.290Z,10.50
2023-04-02T18:56:22.049Z,9.30
2023-04-02T18:58:57.495Z,9.63
2023-04-02T19:01:31.628Z,10.93
2023-04-02T19:04:05.088Z,9.03
2023-04-02T19:06:37.914Z,14.10
2023-04-02T19:09:13.248Z,12.80
2023-04-02T19:11:41.112Z,11.33
2023-04-02T19:14:13.564Z,10.77
2023-04-02T19:17:11.317Z,10.10
2023-04-02T19:19:43.986Z,9.50
2023-04-02T19:22:24.817Z,10.10
2023-04-02T19:25:12.493Z,10.60
2023-04-02T19:27:54.938Z,11.37
2023-04-02T19:30:42.388Z,9.63
2023-04-02T19:33:24.819Z,10.00
2023-04-02T19:35:58.758Z,10.17
2023-04-02T19:38:49.380Z,10.70
2023-04-02T19:41:30.537Z,9.40
2023-04-02T19:43:58.679Z,9.87
2023-04-02T19:46:27.520Z,10.73
2023-04-02T19:49:03.146Z,9.27
2023-04-02T19:51:31.290Z,11.33
2023-04-02T19:53:59.285Z,9.60
2023-04-02T19:56:29.282Z,9.37
2023-04-02T19:58:58.303Z,7.63
2023-04-02T20:01:28.056Z,7.20
2023-04-02T20:03:55.962Z,9.30
2023-04-02T20:06:23.863Z,8.57
2023-04-02T20:08:51.765Z,8.13
2023-04-02T20:11:19.839Z,7.90
2023-04-02T20:13:50.146Z,7.43
2023-04-02T20:16:18.283Z,7.90
2023-04-02T20:18:46.241Z,7.70
2023-04-02T20:21:14.161Z,7.43
2023-04-02T20:23:42.486Z,8.33
2023-04-02T20:26:10.476Z,7.77
2023-04-02T20:28:38.399Z,7.30
2023-04-02T20:31:09.566Z,7.83
2023-04-02T20:33:38.188Z,8.17
2023-04-02T20:36:09.542Z,7.57
2023-04-02T20:38:37.771Z,7.60
2023-04-02T20:41:07.072Z,9.30
2023-04-02T20:43:36.198Z,6.83
2023-04-02T20:46:08.931Z,7.27
2023-04-02T20:48:39.757Z,7.17
2023-04-02T20:51:09.082Z,7.13
2023-04-02T20:53:38.430Z,6.73
2023-04-02T20:56:08.436Z,6.67
2023-04-02T20:58:37.174Z,10.20
2023-04-02T21:01:10.115Z,10.60
2023-04-02T21:03:40.522Z,5.90
2023-04-02T21:06:13.828Z,6.90
2023-04-02T21:08:41.873Z,6.33
2023-04-02T21:11:10.806Z,6.73
2023-04-02T21:13:41.766Z,6.33
2023-04-02T21:16:16.212Z,7.00
2023-04-02T21:18:46.573Z,5.50
2023-04-02T21:21:15.954Z,5.73
2023-04-02T21:23:45.159Z,4.90
2023-04-02T21:26:15.021Z,4.80
2023-04-02T21:28:43.976Z,5.20
2023-04-02T21:31:13.280Z,4.90
2023-04-02T21:33:43.647Z,5.50
2023-04-02T21:36:15.310Z,4.77
2023-04-02T21:38:43.769Z,5.30
2023-04-02T21:41:13.597Z,5.13
2023-04-02T21:43:41.457Z,4.60
2023-04-02T21:46:09.670Z,5.87
2023-04-02T21:48:37.717Z,6.17
2023-04-02T21:51:07.628Z,4.87
2023-04-02T21:53:36.953Z,5.67
2023-04-02T21:56:06.415Z,5.00
2023-04-02T21:58:34.951Z,6.40
2023-04-02T22:01:05.485Z,5.70
2023-04-02T22:03:35.330Z,5.30
2023-04-02T22:06:05.840Z,5.60
2023-04-02T22:08:34.014Z,5.50
2023-04-02T22:11:11.600Z,5.63
2023-04-02T22:13:41.549Z,5.20
2023-04-02T22:16:12.718Z,6.07
2023-04-02T22:18:41.482Z,5.40
2023-04-02T22:21:09.634Z,5.93
2023-04-02T22:23:37.852Z,5.50
2023-04-02T22:26:07.676Z,6.70
2023-04-02T22:28:37.978Z,6.73
2023-04-02T22:31:07.654Z,6.40
2023-04-02T22:33:37.059Z,6.43
2023-04-02T22:36:06.322Z,5.80
2023-04-02T22:38:35.185Z,6.63
2023-04-02T22:41:07.781Z,5.50
2023-04-02T22:43:37.999Z,5.23
2023-04-02T22:46:06.538Z,5.90
2023-04-02T22:48:34.942Z,7.07
2023-04-02T22:51:03.247Z,5.77
2023-04-02T22:53:31.231Z,6.40
2023-04-02T22:56:03.192Z,7.53
2023-04-02T22:58:31.222Z,5.90
2023-04-02T23:01:05.958Z,5.80
2023-04-02T23:03:33.962Z,6.30
2023-04-02T23:06:03.393Z,5.50
2023-04-02T23:08:31.692Z,6.10
2023-04-02T23:11:04.442Z,5.40
2023-04-02T23:13:33.093Z,5.40
2023-04-02T23:16:01.975Z,5.87
2023-04-02T23:18:32.873Z,5.27
2023-04-02T23:21:01.298Z,5.10
2023-04-02T23:23:29.458Z,5.17
2023-04-02T23:26:05.498Z,5.63
2023-04-02T23:28:33.797Z,5.20
2023-04-02T23:31:03.074Z,5.40
2023-04-02T23:33:32.760Z,4.67
2023-04-02T23:36:01.015Z,5.03
2023-04-02T23:38:29.005Z,5.47
2023-04-02T23:40:56.862Z,5.50
2023-04-02T23:43:24.974Z,5.60
2023-04-02T23:45:52.858Z,5.23
2023-04-02T23:48:20.720Z,4.93
2023-04-02T23:50:49.933Z,5.50
2023-04-02T23:53:18.724Z,4.90
2023-04-02T23:55:46.888Z,7.00
2023-04-02T23:58:14.896Z,8.43
